< < Back
Terminal Aerodrome Forecast


Current Version              Previous Versions:   1  2  3  4  5  6  7  8  9  

Terminal Aerodrome Forecast

864
FTUS42 KGSP 291100
TAFAVL
TAF
KAVL 291131Z 2912/3012 34004KT P6SM SCT250
     FM291600 34009KT P6SM SCT035
     FM300200 34003KT P6SM FEW250=



Latest METAR

443
SAUS70 KWBC 291400 RRD
MTRAVL
METAR KAVL 291354Z 36008KT 10SM CLR 19/13 A3005 RMK AO2 SLP154
T01890128


USA.gov is the U.S. government's official web portal to all federal, state and local government web resources and services.